createdAt,value
2022-12-01T00:01:38.055Z,33.38
2022-12-01T00:04:06.449Z,30.73
2022-12-01T00:06:34.909Z,30.58
2022-12-01T00:09:21.562Z,29.52
2022-12-01T00:11:50.177Z,28.58
2022-12-01T00:14:18.623Z,30.55
2022-12-01T00:16:47.173Z,30.23
2022-12-01T00:19:15.611Z,27.00
2022-12-01T00:21:45.604Z,28.00
2022-12-01T00:24:13.975Z,31.67
2022-12-01T00:26:42.469Z,29.05
2022-12-01T00:29:10.948Z,28.40
2022-12-01T00:31:39.444Z,28.80
2022-12-01T00:34:21.241Z,29.50
2022-12-01T00:36:49.782Z,29.48
2022-12-01T00:39:18.231Z,29.33
2022-12-01T00:41:46.695Z,28.20
2022-12-01T00:44:15.082Z,30.08
2022-12-01T00:46:43.425Z,33.65
2022-12-01T00:49:13.687Z,27.48
2022-12-01T00:51:42.101Z,32.53
2022-12-01T00:54:10.535Z,37.50
2022-12-01T00:56:39.002Z,34.33
2022-12-01T00:59:07.333Z,30.58
2022-12-01T01:01:35.923Z,31.65
2022-12-01T01:04:04.911Z,34.38
2022-12-01T01:06:33.337Z,30.23
2022-12-01T01:09:01.754Z,35.85
2022-12-01T01:11:30.103Z,35.25
2022-12-01T01:13:59.756Z,31.90
2022-12-01T01:16:28.702Z,33.47
2022-12-01T01:18:58.233Z,35.67
2022-12-01T01:21:27.211Z,35.13
2022-12-01T01:23:56.309Z,40.85
2022-12-01T01:26:27.590Z,44.95
2022-12-01T01:28:58.115Z,38.53
2022-12-01T01:31:28.345Z,45.15
2022-12-01T01:33:58.004Z,44.55
2022-12-01T01:36:27.288Z,43.92
2022-12-01T01:38:55.890Z,43.88
2022-12-01T01:41:24.396Z,42.22
2022-12-01T01:43:56.312Z,38.60
2022-12-01T01:46:33.005Z,37.42
2022-12-01T01:49:05.000Z,44.28
2022-12-01T01:51:53.685Z,47.35
2022-12-01T01:54:32.249Z,47.58
2022-12-01T01:57:02.146Z,40.03
2022-12-01T01:59:43.409Z,39.55
2022-12-01T02:02:12.976Z,43.35
2022-12-01T02:04:56.692Z,45.90
2022-12-01T02:07:25.511Z,42.33
2022-12-01T02:09:55.226Z,42.67
2022-12-01T02:12:49.787Z,41.08
2022-12-01T02:15:33.502Z,43.22
2022-12-01T02:18:20.266Z,42.50
2022-12-01T02:21:22.753Z,40.58
2022-12-01T02:23:54.160Z,40.78
2022-12-01T02:26:50.671Z,45.78
2022-12-01T02:29:41.238Z,43.92
2022-12-01T02:32:23.438Z,40.28
2022-12-01T02:35:13.274Z,44.10
2022-12-01T02:38:03.217Z,37.55
2022-12-01T02:40:39.436Z,44.30
2022-12-01T02:43:20.176Z,43.08
2022-12-01T02:45:55.351Z,36.72
2022-12-01T02:48:28.946Z,36.85
2022-12-01T02:51:12.570Z,35.42
2022-12-01T02:53:41.081Z,39.22
2022-12-01T02:56:14.660Z,38.42
2022-12-01T02:58:43.740Z,45.40
2022-12-01T03:01:20.596Z,34.92
2022-12-01T03:04:24.212Z,43.20
2022-12-01T03:07:10.771Z,40.70
2022-12-01T03:09:45.289Z,39.33
2022-12-01T03:12:29.045Z,39.83
2022-12-01T03:15:09.252Z,36.30
2022-12-01T03:17:53.606Z,37.60
2022-12-01T03:20:37.533Z,38.03
2022-12-01T03:23:21.152Z,37.70
2022-12-01T03:25:52.301Z,40.33
2022-12-01T03:28:28.793Z,41.28
2022-12-01T03:31:03.648Z,38.58
2022-12-01T03:33:37.370Z,43.10
2022-12-01T03:36:41.967Z,37.15
2022-12-01T03:39:18.208Z,44.70
2022-12-01T03:42:30.203Z,42.08
2022-12-01T03:45:04.715Z,41.00
2022-12-01T03:47:37.129Z,37.72
2022-12-01T03:50:08.069Z,40.30
2022-12-01T03:53:06.701Z,38.83
2022-12-01T03:55:41.886Z,36.75
2022-12-01T03:58:21.179Z,35.65
2022-12-01T04:00:53.255Z,35.00
2022-12-01T04:03:25.150Z,36.00
2022-12-01T04:05:53.667Z,38.45
2022-12-01T04:08:22.054Z,37.50
2022-12-01T04:10:50.450Z,40.42
2022-12-01T04:13:23.283Z,37.90
2022-12-01T04:15:53.395Z,38.10
2022-12-01T04:18:22.109Z,39.95
2022-12-01T04:20:50.702Z,40.17
2022-12-01T04:23:37.984Z,38.33
2022-12-01T04:26:09.986Z,36.35
2022-12-01T04:28:41.102Z,38.20
2022-12-01T04:31:09.558Z,39.40
2022-12-01T04:33:38.052Z,39.17
2022-12-01T04:36:06.782Z,37.20
2022-12-01T04:38:37.050Z,40.00
2022-12-01T04:41:10.627Z,32.53
2022-12-01T04:43:39.861Z,38.28
2022-12-01T04:46:08.674Z,36.50
2022-12-01T04:48:38.762Z,32.38
2022-12-01T04:51:08.570Z,33.95
2022-12-01T04:53:38.394Z,33.55
2022-12-01T04:56:07.197Z,36.33
2022-12-01T04:58:39.927Z,38.78
2022-12-01T05:01:11.687Z,31.27
2022-12-01T05:03:41.902Z,35.80
2022-12-01T05:06:16.871Z,31.17
2022-12-01T05:08:45.280Z,36.08
2022-12-01T05:11:14.566Z,39.17
2022-12-01T05:13:45.442Z,36.17
2022-12-01T05:16:16.480Z,30.77
2022-12-01T05:18:50.460Z,33.45
2022-12-01T05:21:18.888Z,32.55
2022-12-01T05:23:47.307Z,40.13
2022-12-01T05:26:15.826Z,36.10
2022-12-01T05:28:44.556Z,30.45
2022-12-01T05:31:12.987Z,32.50
2022-12-01T05:33:41.464Z,27.85
2022-12-01T05:36:09.980Z,31.52
2022-12-01T05:38:38.515Z,36.33
2022-12-01T05:41:06.883Z,27.20
2022-12-01T05:43:35.319Z,29.08
2022-12-01T05:46:04.073Z,29.17
2022-12-01T05:48:32.554Z,30.42
2022-12-01T05:51:07.817Z,30.55
2022-12-01T05:53:36.255Z,27.23
2022-12-01T05:56:05.925Z,31.15
2022-12-01T05:58:35.660Z,30.95
2022-12-01T06:01:04.299Z,33.08
2022-12-01T06:03:32.801Z,31.20
2022-12-01T06:06:01.463Z,30.02
2022-12-01T06:08:29.901Z,36.30
2022-12-01T06:10:58.323Z,25.55
2022-12-01T06:13:26.812Z,33.30
2022-12-01T06:15:59.554Z,31.30
2022-12-01T06:18:28.058Z,31.05
2022-12-01T06:20:56.536Z,31.80
2022-12-01T06:23:30.030Z,32.70
2022-12-01T06:25:58.968Z,25.92
2022-12-01T06:28:27.485Z,31.02
2022-12-01T06:31:02.512Z,28.45
2022-12-01T06:33:31.945Z,29.55
2022-12-01T06:36:05.518Z,29.65
2022-12-01T06:38:35.475Z,31.48
2022-12-01T06:41:04.440Z,29.20
2022-12-01T06:43:36.486Z,32.08
2022-12-01T06:46:06.022Z,29.35
2022-12-01T06:48:34.772Z,26.95
2022-12-01T06:51:03.544Z,28.95
2022-12-01T06:53:32.983Z,30.35
2022-12-01T06:56:02.567Z,30.95
2022-12-01T06:58:31.194Z,30.67
2022-12-01T07:01:01.150Z,33.42
2022-12-01T07:03:30.607Z,28.90
2022-12-01T07:06:00.507Z,32.70
2022-12-01T07:08:30.151Z,34.22
2022-12-01T07:11:09.462Z,28.75
2022-12-01T07:13:38.671Z,28.23
2022-12-01T07:16:08.712Z,33.88
2022-12-01T07:18:38.532Z,31.27
2022-12-01T07:21:16.260Z,30.63
2022-12-01T07:23:44.982Z,28.00
2022-12-01T07:26:15.994Z,34.20
2022-12-01T07:28:45.042Z,35.13
2022-12-01T07:31:16.450Z,34.90
2022-12-01T07:33:45.426Z,32.00
2022-12-01T07:36:14.550Z,32.85
2022-12-01T07:38:43.055Z,36.25
2022-12-01T07:41:14.417Z,36.58
2022-12-01T07:43:43.223Z,28.85
2022-12-01T07:46:22.641Z,28.58
2022-12-01T07:48:52.788Z,34.85
2022-12-01T07:51:22.955Z,31.88
2022-12-01T07:53:52.523Z,31.98
2022-12-01T07:56:22.065Z,31.92
2022-12-01T07:58:50.568Z,28.80
2022-12-01T08:01:24.894Z,33.97
2022-12-01T08:03:56.554Z,31.88
2022-12-01T08:06:26.415Z,34.00
2022-12-01T08:08:56.050Z,31.88
2022-12-01T08:11:27.048Z,31.08
2022-12-01T08:13:55.976Z,29.80
2022-12-01T08:16:25.247Z,32.45
2022-12-01T08:18:54.895Z,27.77
2022-12-01T08:21:24.065Z,27.13
2022-12-01T08:23:54.711Z,33.15
2022-12-01T08:26:24.790Z,28.70
2022-12-01T08:28:53.368Z,35.30
2022-12-01T08:31:25.639Z,28.33
2022-12-01T08:33:54.613Z,25.88
2022-12-01T08:36:24.040Z,28.10
2022-12-01T08:38:55.001Z,30.35
2022-12-01T08:41:25.290Z,28.10
2022-12-01T08:43:59.112Z,28.27
2022-12-01T08:46:35.334Z,28.20
2022-12-01T08:49:05.629Z,34.45
2022-12-01T08:51:34.057Z,41.63
2022-12-01T08:54:02.858Z,28.70
2022-12-01T08:56:37.387Z,29.38
2022-12-01T08:59:06.016Z,32.42
2022-12-01T09:01:35.786Z,26.42
2022-12-01T09:04:08.493Z,32.03
2022-12-01T09:06:43.424Z,32.53
2022-12-01T09:09:16.326Z,28.70
2022-12-01T09:11:45.868Z,34.30
2022-12-01T09:14:16.158Z,37.67
2022-12-01T09:16:49.200Z,32.08
2022-12-01T09:19:24.252Z,36.30
2022-12-01T09:21:53.430Z,30.98
2022-12-01T09:24:23.221Z,33.53
2022-12-01T09:26:55.895Z,29.58
2022-12-01T09:29:24.498Z,34.28
2022-12-01T09:31:56.359Z,31.13
2022-12-01T09:34:25.560Z,27.40
2022-12-01T09:36:58.546Z,32.70
2022-12-01T09:39:27.948Z,28.10
2022-12-01T09:42:08.269Z,29.38
2022-12-01T09:45:04.979Z,31.67
2022-12-01T09:47:37.580Z,35.35
2022-12-01T09:50:20.086Z,26.17
2022-12-01T09:52:57.269Z,30.92
2022-12-01T09:55:26.698Z,31.83
2022-12-01T09:57:58.409Z,33.63
2022-12-01T10:00:31.432Z,33.95
2022-12-01T10:03:12.958Z,31.65
2022-12-01T10:06:26.782Z,31.30
2022-12-01T10:08:54.859Z,29.13
2022-12-01T10:11:35.509Z,33.38
2022-12-01T10:14:06.230Z,33.67
2022-12-01T10:16:54.419Z,33.03
2022-12-01T10:19:33.867Z,32.83
2022-12-01T10:22:26.603Z,31.83
2022-12-01T10:25:01.064Z,34.80
2022-12-01T10:27:29.481Z,38.60
2022-12-01T10:30:15.359Z,32.63
2022-12-01T10:33:17.154Z,34.65
2022-12-01T10:35:45.941Z,40.50
2022-12-01T10:38:26.814Z,35.83
2022-12-01T10:40:59.860Z,33.95
2022-12-01T10:43:53.849Z,40.22
2022-12-01T10:46:28.752Z,35.72
2022-12-01T10:48:59.787Z,33.65
2022-12-01T10:51:28.253Z,37.70
2022-12-01T10:54:07.958Z,37.13
2022-12-01T10:56:40.591Z,33.22
2022-12-01T10:59:46.761Z,34.55
2022-12-01T11:02:19.578Z,34.22
2022-12-01T11:04:53.283Z,36.22
2022-12-01T11:07:26.933Z,40.08
2022-12-01T11:10:15.444Z,34.83
2022-12-01T11:12:52.161Z,29.95
2022-12-01T11:15:41.406Z,33.88
2022-12-01T11:18:33.496Z,33.17
2022-12-01T11:21:14.882Z,28.33
2022-12-01T11:23:50.091Z,35.60
2022-12-01T11:26:27.185Z,33.58
2022-12-01T11:29:21.850Z,30.60
2022-12-01T11:31:53.103Z,33.33
2022-12-01T11:34:34.581Z,31.63
2022-12-01T11:37:17.051Z,32.77
2022-12-01T11:42:30.806Z,32.00
2022-12-01T11:45:23.658Z,30.88
2022-12-01T11:48:18.739Z,30.27
2022-12-01T11:51:22.936Z,34.55
2022-12-01T11:54:13.606Z,34.20
2022-12-01T11:56:44.108Z,39.05
2022-12-01T11:59:24.651Z,30.73
2022-12-01T12:02:18.118Z,35.95
2022-12-01T12:05:31.354Z,26.83
2022-12-01T12:08:21.754Z,29.50
2022-12-01T12:10:58.728Z,28.52
2022-12-01T12:13:57.674Z,25.13
2022-12-01T12:17:00.586Z,27.08
2022-12-01T12:22:44.322Z,24.55
2022-12-01T12:25:23.941Z,28.88
2022-12-01T12:28:03.715Z,30.17
2022-12-01T12:30:40.999Z,29.23
2022-12-01T12:33:41.926Z,26.45
2022-12-01T12:36:25.360Z,27.17
2022-12-01T12:39:15.084Z,22.58
2022-12-01T12:41:48.608Z,23.50
2022-12-01T12:44:39.814Z,24.85
2022-12-01T12:47:26.835Z,24.90
2022-12-01T12:50:17.178Z,28.40
2022-12-01T12:52:49.947Z,28.02
2022-12-01T12:55:24.785Z,30.83
2022-12-01T12:58:20.952Z,29.13
2022-12-01T13:00:55.176Z,27.73
2022-12-01T13:03:33.974Z,28.73
2022-12-01T13:06:09.477Z,33.03
2022-12-01T13:08:40.561Z,30.58
2022-12-01T13:11:18.617Z,28.00
2022-12-01T13:14:16.521Z,30.30
2022-12-01T13:16:50.109Z,26.90
2022-12-01T13:19:31.354Z,29.27
2022-12-01T13:22:01.821Z,28.30
2022-12-01T13:24:31.495Z,31.65
2022-12-01T13:27:05.097Z,31.38
2022-12-01T13:29:44.069Z,33.03
2022-12-01T13:32:40.279Z,26.40
2022-12-01T13:35:27.706Z,32.72
2022-12-01T13:38:30.264Z,30.98
2022-12-01T13:41:23.910Z,34.08
2022-12-01T13:44:24.675Z,27.38
2022-12-01T13:47:10.069Z,28.17
2022-12-01T13:49:43.712Z,23.60
2022-12-01T13:52:18.332Z,27.67
2022-12-01T13:55:10.776Z,25.73
2022-12-01T13:57:44.578Z,23.77
2022-12-01T14:00:31.859Z,26.27
2022-12-01T14:03:12.539Z,23.00
2022-12-01T14:05:53.317Z,22.05
2022-12-01T14:08:34.232Z,25.02
2022-12-01T14:11:29.624Z,25.77
2022-12-01T14:14:11.983Z,27.48
2022-12-01T14:19:41.699Z,26.50
2022-12-01T14:22:33.411Z,25.55
2022-12-01T14:25:06.027Z,29.92
2022-12-01T14:27:40.163Z,29.20
2022-12-01T14:30:44.890Z,31.77
2022-12-01T14:33:53.675Z,31.60
2022-12-01T14:36:51.673Z,28.73
2022-12-01T14:39:33.504Z,30.73
2022-12-01T14:42:12.336Z,27.15
2022-12-01T14:44:48.261Z,30.80
2022-12-01T14:47:22.954Z,28.10
2022-12-01T14:50:15.288Z,27.20
2022-12-01T14:52:47.009Z,30.58
2022-12-01T14:55:20.962Z,27.83
2022-12-01T14:57:51.706Z,25.80
2022-12-01T15:00:22.946Z,26.95
2022-12-01T15:02:59.391Z,27.83
2022-12-01T15:05:31.214Z,25.80
2022-12-01T15:08:40.412Z,30.00
2022-12-01T15:11:10.693Z,30.23
2022-12-01T15:13:50.279Z,35.33
2022-12-01T15:16:28.708Z,24.83
2022-12-01T15:18:58.458Z,27.00
2022-12-01T15:21:31.874Z,28.52
2022-12-01T15:24:27.489Z,26.30
2022-12-01T15:27:03.488Z,30.35
2022-12-01T15:29:42.802Z,31.48
2022-12-01T15:32:17.152Z,33.25
2022-12-01T15:34:48.665Z,32.40
2022-12-01T15:37:26.858Z,31.33
2022-12-01T15:43:05.417Z,30.98
2022-12-01T15:45:57.321Z,32.75
2022-12-01T15:48:34.457Z,35.33
2022-12-01T15:51:20.056Z,31.27
2022-12-01T15:53:59.108Z,36.38
2022-12-01T15:56:37.984Z,33.78
2022-12-01T15:59:12.464Z,37.70
2022-12-01T16:01:43.622Z,28.70
2022-12-01T16:04:35.483Z,30.47
2022-12-01T16:07:10.495Z,28.08
2022-12-01T16:09:42.946Z,37.05
2022-12-01T16:12:14.458Z,32.08
2022-12-01T16:15:01.314Z,39.22
2022-12-01T16:17:48.123Z,30.33
2022-12-01T16:20:26.686Z,29.95
2022-12-01T16:23:01.707Z,31.27
2022-12-01T16:25:37.984Z,29.10
2022-12-01T16:28:07.544Z,29.45
2022-12-01T16:30:39.936Z,30.70
2022-12-01T16:33:29.621Z,34.20
2022-12-01T16:35:59.843Z,30.98
2022-12-01T16:38:29.431Z,32.90
2022-12-01T16:41:02.269Z,29.42
2022-12-01T16:43:30.710Z,29.05
2022-12-01T16:46:04.086Z,28.50
2022-12-01T16:48:32.629Z,30.30
2022-12-01T16:51:03.135Z,29.80
2022-12-01T16:53:31.988Z,35.78
2022-12-01T16:56:02.435Z,32.22
2022-12-01T16:58:30.931Z,27.38
2022-12-01T17:00:59.825Z,28.05
2022-12-01T17:03:28.816Z,34.22
2022-12-01T17:06:00.352Z,33.53
2022-12-01T17:08:32.770Z,38.28
2022-12-01T17:11:06.062Z,36.97
2022-12-01T17:13:35.632Z,37.58
2022-12-01T17:16:07.149Z,37.50
2022-12-01T17:18:37.673Z,33.03
2022-12-01T17:21:09.628Z,34.63
2022-12-01T17:23:38.952Z,35.08
2022-12-01T17:26:13.789Z,33.33
2022-12-01T17:28:42.444Z,30.52
2022-12-01T17:31:11.212Z,35.75
2022-12-01T17:33:40.163Z,32.45
2022-12-01T17:36:11.553Z,32.50
2022-12-01T17:38:42.881Z,36.78
2022-12-01T17:41:24.800Z,36.27
2022-12-01T17:43:53.186Z,37.28
2022-12-01T17:46:21.609Z,37.80
2022-12-01T17:48:50.097Z,37.50
2022-12-01T17:51:18.473Z,37.55
2022-12-01T17:53:47.254Z,32.03
2022-12-01T17:56:17.354Z,33.75
2022-12-01T17:58:45.884Z,31.00
2022-12-01T18:01:16.447Z,35.20
2022-12-01T18:03:45.408Z,39.05
2022-12-01T18:06:14.482Z,37.42
2022-12-01T18:08:43.272Z,35.92
2022-12-01T18:11:14.927Z,37.45
2022-12-01T18:13:46.785Z,41.45
2022-12-01T18:16:24.629Z,34.60
2022-12-01T18:18:54.500Z,42.28
2022-12-01T18:21:24.352Z,40.75
2022-12-01T18:23:55.549Z,33.85
2022-12-01T18:26:25.099Z,39.72
2022-12-01T18:28:59.632Z,34.47
2022-12-01T18:31:30.243Z,31.13
2022-12-01T18:34:02.959Z,41.33
2022-12-01T18:36:34.057Z,32.67
2022-12-01T18:39:04.869Z,35.22
2022-12-01T18:41:33.980Z,38.13
2022-12-01T18:44:03.269Z,31.60
2022-12-01T18:46:32.417Z,36.42
2022-12-01T18:49:02.652Z,35.53
2022-12-01T18:51:33.577Z,36.40
2022-12-01T18:54:04.062Z,37.55
2022-12-01T18:56:33.560Z,35.70
2022-12-01T18:59:07.584Z,40.67
2022-12-01T19:01:39.979Z,35.20
2022-12-01T19:04:09.403Z,36.03
2022-12-01T19:06:40.280Z,36.60
2022-12-01T19:09:11.177Z,33.53
2022-12-01T19:11:40.767Z,37.33
2022-12-01T19:14:14.813Z,33.65
2022-12-01T19:16:44.421Z,42.97
2022-12-01T19:19:13.059Z,32.80
2022-12-01T19:21:42.930Z,38.67
2022-12-01T19:24:11.492Z,42.25
2022-12-01T19:26:39.932Z,34.95
2022-12-01T19:29:08.446Z,35.08
2022-12-01T19:31:37.046Z,40.63
2022-12-01T19:34:05.656Z,34.75
2022-12-01T19:36:34.118Z,38.67
2022-12-01T19:39:07.233Z,35.40
2022-12-01T19:41:35.957Z,34.33
2022-12-01T19:44:04.414Z,34.72
2022-12-01T19:46:32.901Z,35.63
2022-12-01T19:49:01.729Z,31.10
2022-12-01T19:51:34.897Z,35.10
2022-12-01T19:54:05.100Z,33.03
2022-12-01T19:56:33.552Z,35.78
2022-12-01T19:59:02.130Z,34.70
2022-12-01T20:01:30.703Z,33.03
2022-12-01T20:03:59.753Z,39.03
2022-12-01T20:06:30.246Z,38.60
2022-12-01T20:09:01.027Z,30.98
2022-12-01T20:11:31.549Z,43.03
2022-12-01T20:13:59.957Z,36.05
2022-12-01T20:16:30.370Z,35.10
2022-12-01T20:19:03.489Z,36.65
2022-12-01T20:21:42.071Z,32.55
2022-12-01T20:24:13.139Z,35.00
2022-12-01T20:26:48.202Z,37.13
2022-12-01T20:29:26.312Z,31.77
2022-12-01T20:31:56.825Z,34.38
2022-12-01T20:34:28.720Z,32.42
2022-12-01T20:36:57.295Z,34.30
2022-12-01T20:39:26.904Z,40.00
2022-12-01T20:41:55.415Z,32.70
2022-12-01T20:44:23.854Z,31.40
2022-12-01T20:46:52.488Z,36.65
2022-12-01T20:49:20.945Z,31.55
2022-12-01T20:51:49.764Z,37.38
2022-12-01T20:54:28.360Z,38.67
2022-12-01T20:56:58.268Z,38.05
2022-12-01T20:59:27.469Z,33.45
2022-12-01T21:01:56.084Z,32.97
2022-12-01T21:04:24.616Z,39.42
2022-12-01T21:06:57.816Z,33.15
2022-12-01T21:09:26.399Z,33.58
2022-12-01T21:12:16.834Z,30.98
2022-12-01T21:14:53.540Z,36.95
2022-12-01T21:17:28.257Z,30.88
2022-12-01T21:20:25.150Z,36.13
2022-12-01T21:22:54.157Z,28.98
2022-12-01T21:25:24.400Z,35.22
2022-12-01T21:27:56.531Z,36.00
2022-12-01T21:30:26.444Z,38.17
2022-12-01T21:33:14.449Z,37.40
2022-12-01T21:35:42.880Z,38.67
2022-12-01T21:38:16.470Z,40.88
2022-12-01T21:40:47.825Z,40.15
2022-12-01T21:43:23.861Z,40.28
2022-12-01T21:45:58.405Z,33.88
2022-12-01T21:48:35.498Z,41.90
2022-12-01T21:51:23.019Z,39.28
2022-12-01T21:53:55.559Z,37.90
2022-12-01T21:56:26.567Z,42.38
2022-12-01T21:58:58.872Z,36.28
2022-12-01T22:01:32.223Z,32.92
2022-12-01T22:04:05.446Z,37.60
2022-12-01T22:06:43.690Z,39.83
2022-12-01T22:09:26.011Z,36.40
2022-12-01T22:12:01.289Z,38.80
2022-12-01T22:14:33.557Z,40.78
2022-12-01T22:19:44.663Z,42.50
2022-12-01T22:22:13.105Z,41.28
2022-12-01T22:24:50.784Z,46.90
2022-12-01T22:27:35.727Z,45.08
2022-12-01T22:30:10.154Z,48.13
2022-12-01T22:32:57.592Z,39.83
2022-12-01T22:35:28.966Z,42.78
2022-12-01T22:38:06.522Z,44.97
2022-12-01T22:40:51.389Z,44.03
2022-12-01T22:43:43.000Z,45.75
2022-12-01T22:46:32.595Z,56.43
2022-12-01T22:49:10.714Z,53.90
2022-12-01T22:52:14.127Z,48.72
2022-12-01T22:54:44.808Z,48.00
2022-12-01T22:57:24.308Z,51.15
2022-12-01T22:59:54.069Z,58.58
2022-12-01T23:02:26.952Z,53.17
2022-12-01T23:05:22.336Z,49.35
2022-12-01T23:07:52.179Z,59.90
2022-12-01T23:10:26.355Z,51.20
2022-12-01T23:12:57.003Z,57.50
2022-12-01T23:15:32.131Z,61.35
2022-12-01T23:18:14.960Z,47.65
2022-12-01T23:20:46.055Z,57.40
2022-12-01T23:23:19.815Z,53.75
2022-12-01T23:25:50.448Z,48.35
2022-12-01T23:28:20.277Z,60.10
2022-12-01T23:30:52.894Z,67.20
2022-12-01T23:33:24.471Z,61.83
2022-12-01T23:35:59.978Z,56.20
2022-12-01T23:38:36.251Z,58.65
2022-12-01T23:41:08.348Z,53.78
2022-12-01T23:43:42.754Z,61.80
2022-12-01T23:46:12.815Z,54.50
2022-12-01T23:48:59.104Z,68.13
2022-12-01T23:51:30.380Z,57.80
2022-12-01T23:54:06.047Z,52.63
2022-12-01T23:56:37.905Z,58.50
2022-12-01T23:59:12.900Z,70.65
